Time;durP1;ratioP1;P1;durP2;ratioP2;P2;SDS_P1;SDS_P2;PMS_P1;PMS_P2;Temp;Humidity;BMP_temperature;BMP_pressure;BME280_temperature;BME280_humidity;BME280_pressure;Samples;Min_cycle;Max_cycle;Signal;HPM_P1;HPM_P2
2024/04/14 00:00:18;;;;;;;62.65;10.70;;;;;;;12.67;100.00;98379.56;5377090;26;20007;-62
2024/04/14 00:02:44;;;;;;;87.90;11.93;;;;;;;12.70;100.00;98382.16;5368279;26;19991;-64
2024/04/14 00:05:09;;;;;;;45.40;9.98;;;;;;;12.55;100.00;98380.50;5377193;26;20003;-63
2024/04/14 00:07:36;;;;;;;63.60;11.13;;;;;;;12.56;100.00;98374.41;5378707;26;20419;-62
2024/04/14 00:10:02;;;;;;;67.32;11.20;;;;;;;12.45;100.00;98367.50;5377088;26;20422;-64
2024/04/14 00:12:27;;;;;;;54.17;10.10;;;;;;;12.55;100.00;98360.47;5375269;26;20607;-61
2024/04/14 00:14:52;;;;;;;50.03;10.20;;;;;;;12.46;100.00;98361.41;5375097;26;20487;-62
2024/04/14 00:17:17;;;;;;;72.03;11.10;;;;;;;12.50;100.00;98359.66;5372160;26;20108;-62
2024/04/14 00:19:43;;;;;;;72.35;11.60;;;;;;;12.58;100.00;98362.25;5375036;26;20004;-63
2024/04/14 00:22:08;;;;;;;58.65;10.30;;;;;;;12.57;100.00;98356.13;5375240;26;20000;-61
2024/04/14 00:24:34;;;;;;;75.07;11.30;;;;;;;12.49;100.00;98353.59;5376291;26;20047;-63
2024/04/14 00:26:59;;;;;;;58.90;10.68;;;;;;;12.52;100.00;98349.22;5379374;26;20418;-66
2024/04/14 00:29:24;;;;;;;60.42;10.88;;;;;;;12.43;100.00;98344.94;5374362;26;19999;-61
2024/04/14 00:31:50;;;;;;;72.97;11.10;;;;;;;12.32;100.00;98339.75;5378451;26;20045;-62
2024/04/14 00:34:15;;;;;;;60.35;10.80;;;;;;;12.39;100.00;98343.22;5381202;26;20552;-64
2024/04/14 00:36:42;;;;;;;72.20;11.80;;;;;;;12.37;100.00;98338.84;5369418;26;19996;-62
2024/04/14 00:39:08;;;;;;;59.42;10.60;;;;;;;12.39;100.00;98340.59;5375701;26;20004;-64
2024/04/14 00:41:33;;;;;;;89.80;12.32;;;;;;;12.49;100.00;98342.28;5372827;26;20051;-62
2024/04/14 00:43:58;;;;;;;42.70;9.18;;;;;;;12.30;100.00;98339.75;5372732;26;20000;-63
2024/04/14 00:46:24;;;;;;;55.65;10.30;;;;;;;12.30;100.00;98337.16;5373186;26;20000;-61
2024/04/14 00:48:50;;;;;;;56.47;10.13;;;;;;;12.15;100.00;98342.44;5374516;26;20362;-61
2024/04/14 00:51:17;;;;;;;43.10;9.27;;;;;;;12.34;100.00;98336.28;5373312;26;20007;-62
2024/04/14 00:53:43;;;;;;;53.78;10.18;;;;;;;12.33;100.00;98342.34;5375799;26;20047;-63
2024/04/14 00:56:08;;;;;;;51.92;9.65;;;;;;;12.36;100.00;98339.72;5371368;26;20597;-63
2024/04/14 00:58:34;;;;;;;57.97;10.35;;;;;;;12.22;100.00;98338.94;5375157;26;19995;-63
2024/04/14 01:01:00;;;;;;;68.53;10.82;;;;;;;12.21;100.00;98337.19;5374459;26;20008;-63
2024/04/14 01:03:25;;;;;;;52.50;10.15;;;;;;;12.29;100.00;98331.94;5375929;26;20467;-62
2024/04/14 01:05:50;;;;;;;47.95;9.63;;;;;;;12.27;100.00;98334.56;5374688;26;20018;-62
2024/04/14 01:08:16;;;;;;;44.78;8.82;;;;;;;12.23;100.00;98325.88;5377258;26;19997;-61
2024/04/14 01:10:42;;;;;;;74.28;11.25;;;;;;;12.24;100.00;98327.63;5377629;26;19995;-65
2024/04/14 01:13:07;;;;;;;45.05;9.70;;;;;;;12.05;100.00;98324.22;5372651;26;20012;-63
2024/04/14 01:15:33;;;;;;;49.28;9.73;;;;;;;12.09;100.00;98325.06;5375715;26;20069;-63
2024/04/14 01:17:58;;;;;;;61.47;10.50;;;;;;;12.00;100.00;98322.47;5376333;26;19999;-65
2024/04/14 01:20:23;;;;;;;52.25;10.25;;;;;;;12.09;100.00;98325.06;5378990;26;20008;-62
2024/04/14 01:22:50;;;;;;;64.18;10.73;;;;;;;11.98;100.00;98320.75;5378716;26;19995;-61
2024/04/14 01:25:16;;;;;;;58.95;9.65;;;;;;;11.96;100.00;98317.25;5372895;26;20852;-62
2024/04/14 01:27:41;;;;;;;58.97;9.80;;;;;;;11.87;100.00;98312.06;5376489;26;20028;-62
2024/04/14 01:30:07;;;;;;;38.13;9.25;;;;;;;11.84;100.00;98315.56;5374642;26;20028;-63
2024/04/14 01:32:34;;;;;;;57.17;10.13;;;;;;;12.02;100.00;98320.72;5375197;26;19999;-63
2024/04/14 01:35:00;;;;;;;42.90;9.65;;;;;;;11.92;100.00;98318.13;5377901;26;19996;-61
2024/04/14 01:37:25;;;;;;;56.03;9.88;;;;;;;11.80;100.00;98308.63;5372081;26;20003;-62
2024/04/14 01:39:50;;;;;;;50.78;9.93;;;;;;;11.85;100.00;98303.41;5371940;26;20000;-61
2024/04/14 01:42:16;;;;;;;43.47;8.10;;;;;;;11.67;100.00;98307.81;5371816;26;20004;-61
2024/04/14 01:44:41;;;;;;;63.92;10.50;;;;;;;11.63;100.00;98313.91;5375446;26;20447;-63
2024/04/14 01:47:06;;;;;;;56.47;9.68;;;;;;;11.52;100.00;98308.72;5373839;26;19997;-62
2024/04/14 01:49:32;;;;;;;43.97;9.35;;;;;;;11.69;100.00;98313.03;5372173;26;20088;-64
2024/04/14 01:51:57;;;;;;;50.53;9.55;;;;;;;11.51;100.00;98317.38;5370985;26;20015;-64
2024/04/14 01:54:22;;;;;;;58.88;10.50;;;;;;;11.45;100.00;98304.38;5376076;26;20412;-61
2024/04/14 01:56:48;;;;;;;67.45;11.13;;;;;;;11.70;100.00;98305.19;5373327;26;20028;-64
2024/04/14 01:59:13;;;;;;;41.42;8.63;;;;;;;11.54;100.00;98304.34;5374475;26;19993;-62
2024/04/14 02:01:39;;;;;;;66.07;11.23;;;;;;;11.31;100.00;98307.00;5374776;26;20316;-63
2024/04/14 02:04:04;;;;;;;45.40;9.77;;;;;;;11.45;100.00;98300.06;5371475;26;20008;-63
2024/04/14 02:06:29;;;;;;;56.33;9.50;;;;;;;11.66;100.00;98300.00;5371737;26;19997;-64
2024/04/14 02:08:55;;;;;;;42.88;9.73;;;;;;;11.72;100.00;98305.19;5370001;26;20000;-64
2024/04/14 02:11:20;;;;;;;62.45;10.38;;;;;;;11.57;100.00;98311.28;5369692;26;20433;-62
2024/04/14 02:13:45;;;;;;;48.42;9.60;;;;;;;11.25;100.00;98315.69;5372979;26;20572;-64
2024/04/14 02:16:11;;;;;;;43.65;9.73;;;;;;;11.46;100.00;98306.97;5371430;26;20006;-64
2024/04/14 02:18:36;;;;;;;46.67;9.93;;;;;;;11.50;100.00;98307.84;5372930;26;20346;-62
2024/04/14 02:21:02;;;;;;;69.55;10.98;;;;;;;11.63;100.00;98308.69;5370988;26;20040;-64
2024/04/14 02:23:27;;;;;;;55.95;9.32;;;;;;;11.50;100.00;98312.19;5387950;26;20014;-62
2024/04/14 02:25:54;;;;;;;46.17;9.85;;;;;;;11.45;100.00;98309.59;5370219;26;20028;-65
2024/04/14 02:28:19;;;;;;;60.75;10.45;;;;;;;11.57;100.00;98306.97;5376096;26;20004;-61
2024/04/14 02:30:45;;;;;;;60.88;10.52;;;;;;;11.69;100.00;98307.81;5373280;26;20345;-62
2024/04/14 02:33:10;;;;;;;57.03;9.85;;;;;;;11.51;100.00;98306.09;5371077;26;20449;-64
2024/04/14 02:35:39;;;;;;;49.35;9.27;;;;;;;11.45;100.00;98305.25;5370851;26;20562;-62
2024/04/14 02:38:05;;;;;;;40.88;9.02;;;;;;;11.64;100.00;98304.31;5378205;26;20591;-62
2024/04/14 02:40:30;;;;;;;50.30;9.68;;;;;;;11.39;100.00;98304.41;5372481;26;20231;-61
2024/04/14 02:42:56;;;;;;;41.25;8.82;;;;;;;11.39;100.00;98305.25;5373922;26;20006;-62
2024/04/14 02:45:21;;;;;;;45.15;9.35;;;;;;;11.43;100.00;98296.56;5375947;26;20007;-63
2024/04/14 02:47:46;;;;;;;66.35;10.73;;;;;;;11.25;100.00;98300.06;5374879;26;19996;-63
2024/04/14 02:50:12;;;;;;;44.10;9.43;;;;;;;11.40;100.00;98299.16;5374738;26;20011;-64
2024/04/14 02:52:37;;;;;;;43.92;8.90;;;;;;;11.40;100.00;98298.31;5374274;26;20008;-62
2024/04/14 02:55:03;;;;;;;48.20;9.68;;;;;;;11.26;100.00;98301.81;5374133;26;20011;-62
2024/04/14 02:57:28;;;;;;;51.78;9.82;;;;;;;11.15;100.00;98307.03;5373628;26;19996;-61
2024/04/14 02:59:53;;;;;;;69.10;10.93;;;;;;;11.09;100.00;98313.97;5371697;26;20270;-62
2024/04/14 03:02:19;;;;;;;52.65;9.77;;;;;;;10.96;100.00;98303.56;5368381;26;20007;-62
2024/04/14 03:04:48;;;;;;;62.50;10.55;;;;;;;11.04;100.00;98296.63;5376217;26;20316;-62
2024/04/14 03:07:13;;;;;;;34.45;8.60;;;;;;;11.08;100.00;98302.69;5374221;26;20360;-64
2024/04/14 03:09:39;;;;;;;52.50;9.95;;;;;;;11.14;100.00;98304.41;5373305;26;20000;-61
2024/04/14 03:12:05;;;;;;;44.10;9.50;;;;;;;11.15;100.00;98295.72;5378775;26;20442;-62
2024/04/14 03:14:30;;;;;;;46.10;8.80;;;;;;;10.98;100.00;98301.81;5378605;26;20000;-63
2024/04/14 03:16:55;;;;;;;48.47;9.32;;;;;;;10.90;100.00;98300.94;5375360;26;20428;-63
2024/04/14 03:19:21;;;;;;;48.53;10.48;;;;;;;10.98;100.00;98294.00;5374912;26;20012;-65
2024/04/14 03:21:48;;;;;;;77.38;11.13;;;;;;;10.79;100.00;98291.41;5388509;26;19996;-63
2024/04/14 03:24:13;;;;;;;53.33;9.70;;;;;;;10.80;100.00;98294.84;5376905;26;20015;-63
2024/04/14 03:26:38;;;;;;;51.45;9.45;;;;;;;10.79;100.00;98299.22;5376858;26;20000;-62
2024/04/14 03:29:04;;;;;;;43.88;9.82;;;;;;;10.72;100.00;98292.25;5380026;26;20000;-64
2024/04/14 03:31:29;;;;;;;57.72;10.68;;;;;;;10.73;100.00;98293.13;5371854;26;20000;-61
2024/04/14 03:33:54;;;;;;;90.30;11.85;;;;;;;10.85;100.00;98287.94;5377813;26;20384;-63
2024/04/14 03:36:20;;;;;;;54.20;10.18;;;;;;;10.55;100.00;98298.31;5379016;26;20477;-61
2024/04/14 03:38:46;;;;;;;55.03;9.70;;;;;;;10.68;100.00;98298.31;5374952;26;20426;-61
2024/04/14 03:41:11;;;;;;;72.70;10.65;;;;;;;10.61;100.00;98299.19;5370023;26;20008;-62
2024/04/14 03:43:36;;;;;;;40.28;7.78;;;;;;;10.51;100.00;98299.16;5372409;26;20011;-62
2024/04/14 03:46:02;;;;;;;38.60;9.02;;;;;;;10.53;100.00;98296.56;5378002;26;20072;-64
2024/04/14 03:48:27;;;;;;;62.78;10.43;;;;;;;10.71;100.00;98292.25;5375882;26;20357;-66
2024/04/14 03:50:53;;;;;;;62.70;10.40;;;;;;;10.65;100.00;98290.53;5374156;26;20542;-60
2024/04/14 03:53:18;;;;;;;46.17;9.10;;;;;;;10.64;100.00;98299.19;5377518;26;20000;-62
2024/04/14 03:55:43;;;;;;;77.00;12.38;;;;;;;10.72;100.00;98297.47;5373778;26;20000;-62
2024/04/14 03:58:09;;;;;;;36.42;8.80;;;;;;;10.51;100.00;98298.31;5376597;26;20097;-61
2024/04/14 04:00:34;;;;;;;42.83;8.93;;;;;;;10.66;100.00;98297.47;5376471;26;20004;-61
2024/04/14 04:02:59;;;;;;;61.08;10.52;;;;;;;10.58;100.00;98291.38;5369314;26;20485;-63
2024/04/14 04:05:25;;;;;;;46.72;9.05;;;;;;;10.65;100.00;98294.00;5376298;26;20040;-65
2024/04/14 04:07:50;;;;;;;79.88;11.80;;;;;;;10.73;100.00;98288.78;5374005;26;20015;-60
2024/04/14 04:10:15;;;;;;;52.45;10.02;;;;;;;10.53;100.00;98300.03;5374510;26;20014;-59
2024/04/14 04:12:42;;;;;;;41.67;9.07;;;;;;;10.70;100.00;98306.13;5374277;26;20076;-60
2024/04/14 04:15:07;;;;;;;43.17;9.73;;;;;;;10.58;100.00;98292.22;5378094;26;20014;-63
2024/04/14 04:17:32;;;;;;;58.88;9.90;;;;;;;10.61;100.00;98300.06;5373750;26;20000;-63
2024/04/14 04:19:58;;;;;;;68.28;10.55;;;;;;;10.55;100.00;98300.06;5368957;26;20000;-64
2024/04/14 04:22:23;;;;;;;46.17;9.70;;;;;;;10.58;100.00;98288.78;5377921;26;20000;-62
2024/04/14 04:24:48;;;;;;;67.35;10.70;;;;;;;10.57;100.00;98294.84;5371225;26;20006;-64
2024/04/14 04:27:14;;;;;;;50.50;9.50;;;;;;;10.53;100.00;98292.25;5374478;26;20007;-60
2024/04/14 04:29:39;;;;;;;45.50;8.85;;;;;;;10.57;100.00;98294.84;5372078;26;20336;-59
2024/04/14 04:32:05;;;;;;;40.70;8.30;;;;;;;10.49;100.00;98290.50;5370453;26;20371;-61
2024/04/14 04:34:30;;;;;;;63.85;10.25;;;;;;;10.57;100.00;98289.66;5376916;26;20000;-60
2024/04/14 04:36:55;;;;;;;70.93;10.88;;;;;;;10.41;100.00;98294.78;5371538;26;20015;-59
2024/04/14 04:39:21;;;;;;;60.38;10.05;;;;;;;10.56;100.00;98299.19;5375497;26;20000;-61
2024/04/14 04:41:46;;;;;;;84.93;11.82;;;;;;;10.66;100.00;98292.25;5378120;26;20448;-61
2024/04/14 04:44:12;;;;;;;38.20;10.23;;;;;;;10.76;100.00;98285.34;5373433;26;20007;-60
2024/04/14 04:46:37;;;;;;;33.28;8.20;;;;;;;10.70;100.00;98286.19;5383979;26;19999;-62
2024/04/14 04:49:03;;;;;;;63.20;10.52;;;;;;;11.09;100.00;98290.53;5373304;26;20037;-61
2024/04/14 04:51:28;;;;;;;57.28;10.40;;;;;;;10.97;100.00;98287.06;5371394;26;20053;-63
2024/04/14 04:53:54;;;;;;;79.20;10.93;;;;;;;11.15;100.00;98298.34;5372272;26;20016;-63
2024/04/14 04:56:19;;;;;;;65.85;9.88;;;;;;;11.26;100.00;98295.72;5371215;26;20375;-62
2024/04/14 04:58:44;;;;;;;58.90;10.43;;;;;;;11.05;100.00;98292.25;5371222;26;20363;-60
2024/04/14 05:01:11;;;;;;;62.33;10.10;;;;;;;11.38;100.00;98295.72;5368869;26;20015;-60
2024/04/14 05:03:36;;;;;;;52.35;10.32;;;;;;;11.38;100.00;98292.22;5370484;26;20043;-63
2024/04/14 05:06:03;;;;;;;57.50;10.13;;;;;;;12.18;100.00;98298.09;5376703;26;20026;-60
2024/04/14 05:08:29;;;;;;;49.03;9.93;;;;;;;12.44;100.00;98302.31;5376082;26;20018;-64
2024/04/14 05:10:55;;;;;;;89.00;12.45;;;;;;;12.76;100.00;98303.81;5368556;26;19991;-59
2024/04/14 05:13:22;;;;;;;37.85;9.18;;;;;;;13.11;100.00;98307.03;5376806;26;20010;-60
2024/04/14 05:15:47;;;;;;;68.85;10.00;;;;;;;13.25;100.00;98304.31;5368741;26;20513;-65
2024/04/14 05:18:13;;;;;;;52.50;8.80;;;;;;;13.83;100.00;98307.22;5376237;26;20003;-60
2024/04/14 05:20:39;;;;;;;39.35;8.20;;;;;;;13.20;100.00;98306.97;5370983;26;20404;-62
2024/04/14 05:23:05;;;;;;;44.92;9.00;;;;;;;14.15;100.00;98305.97;5372373;26;20011;-60
2024/04/14 05:25:31;;;;;;;47.05;9.73;;;;;;;14.37;100.00;98297.84;5372177;26;20427;-60
2024/04/14 05:27:56;;;;;;;65.60;9.60;;;;;;;14.97;100.00;98296.09;5375165;26;20314;-62
2024/04/14 05:30:21;;;;;;;47.90;8.95;;;;;;;14.71;100.00;98289.47;5374218;26;20005;-61
2024/04/14 05:32:47;;;;;;;63.35;9.75;;;;;;;14.65;100.00;98300.06;5370339;26;20011;-60
2024/04/14 05:35:13;;;;;;;34.00;8.90;;;;;;;15.80;100.00;98301.63;5369288;26;20136;-63
2024/04/14 05:37:39;;;;;;;37.30;8.95;;;;;;;17.89;100.00;98295.00;5372711;26;20000;-62
2024/04/14 05:40:05;;;;;;;46.22;10.38;;;;;;;19.09;100.00;98295.84;5370081;26;20367;-61
2024/04/14 05:42:31;;;;;;;48.65;9.88;;;;;;;19.90;100.00;98301.81;5369837;26;20016;-62
2024/04/14 05:44:56;;;;;;;73.45;12.07;;;;;;;20.22;100.00;98298.94;5368110;26;20000;-63
2024/04/14 05:47:21;;;;;;;38.97;8.82;;;;;;;22.01;100.00;98300.50;5372194;26;20083;-65
2024/04/14 05:49:47;;;;;;;52.53;10.02;;;;;;;20.61;100.00;98296.59;5374728;26;20070;-61
2024/04/14 05:52:12;;;;;;;28.15;7.03;;;;;;;22.59;91.87;98282.84;5374665;26;20000;-62
2024/04/14 05:54:38;;;;;;;28.20;7.53;;;;;;;21.10;91.51;98296.41;5374199;26;20014;-63
2024/04/14 05:57:03;;;;;;;40.47;9.25;;;;;;;22.03;91.34;98296.84;5372603;26;20008;-63
2024/04/14 05:59:29;;;;;;;36.70;9.10;;;;;;;22.46;86.01;98285.19;5372445;26;19996;-62
2024/04/14 06:01:54;;;;;;;55.30;10.98;;;;;;;22.51;83.58;98293.78;5370667;26;20414;-62
2024/04/14 06:04:19;;;;;;;42.05;10.70;;;;;;;22.50;80.12;98290.25;5372767;26;19999;-62
2024/04/14 06:06:45;;;;;;;28.95;8.75;;;;;;;23.07;75.89;98300.84;5372845;26;20015;-60
2024/04/14 06:09:11;;;;;;;33.30;9.73;;;;;;;22.29;84.08;98299.22;5372619;26;20010;-62
2024/04/14 06:11:36;;;;;;;49.45;10.55;;;;;;;22.40;85.68;98299.59;5371407;26;20227;-63
2024/04/14 06:14:01;;;;;;;52.58;10.75;;;;;;;21.39;88.86;98302.25;5372427;26;20295;-61
2024/04/14 06:16:27;;;;;;;38.72;9.80;;;;;;;22.79;86.91;98299.59;5373279;26;20068;-63
2024/04/14 06:18:52;;;;;;;64.65;12.13;;;;;;;24.28;69.16;98297.31;5370538;26;20420;-64
2024/04/14 06:21:17;;;;;;;33.53;8.85;;;;;;;24.17;66.54;98294.41;5375191;26;20015;-62
2024/04/14 06:23:43;;;;;;;23.50;8.25;;;;;;;25.50;61.35;98297.59;5374122;26;20569;-64
2024/04/14 06:26:08;;;;;;;36.78;9.77;;;;;;;24.69;60.22;98306.56;5369486;26;20004;-61
2024/04/14 06:28:34;;;;;;;30.85;9.60;;;;;;;23.63;66.17;98303.38;5372247;26;20002;-63
2024/04/14 06:30:59;;;;;;;65.07;12.90;;;;;;;24.33;67.31;98298.84;5371435;26;20007;-61
2024/04/14 06:33:25;;;;;;;37.97;10.32;;;;;;;24.37;68.82;98303.06;5375134;26;20041;-61
2024/04/14 06:35:51;;;;;;;47.35;11.02;;;;;;;24.45;64.50;98298.16;5368383;26;20004;-59
2024/04/14 06:38:17;;;;;;;34.58;10.20;;;;;;;25.17;67.15;98304.81;5374640;26;20012;-62
2024/04/14 06:40:42;;;;;;;28.13;9.30;;;;;;;25.47;59.21;98306.63;5380377;26;20434;-61
2024/04/14 06:43:08;;;;;;;37.50;10.13;;;;;;;28.19;50.45;98301.59;5374237;26;20007;-61
2024/04/14 06:45:33;;;;;;;20.00;7.38;;;;;;;29.50;45.71;98312.63;5375015;26;19999;-62
2024/04/14 06:48:00;;;;;;;49.15;10.10;;;;;;;31.00;41.50;98309.81;5373498;26;19996;-64
2024/04/14 06:50:26;;;;;;;30.38;8.30;;;;;;;31.49;39.44;98309.38;5372935;26;20248;-63
2024/04/14 06:52:52;;;;;;;36.03;8.90;;;;;;;31.14;40.23;98305.97;5370466;26;20082;-65
2024/04/14 06:55:18;;;;;;;25.35;7.95;;;;;;;31.52;39.09;98302.88;5374484;26;20008;-61
2024/04/14 06:57:44;;;;;;;20.38;7.32;;;;;;;30.79;39.75;98310.63;5372881;26;20279;-63
2024/04/14 07:00:10;;;;;;;24.85;7.38;;;;;;;30.76;38.09;98304.63;5377185;26;20019;-64
2024/04/14 07:02:35;;;;;;;22.20;7.40;;;;;;;31.46;37.94;98300.72;5376146;26;20022;-66
2024/04/14 07:05:01;;;;;;;35.90;8.98;;;;;;;28.72;41.00;98308.53;5373910;26;20000;-65
2024/04/14 07:07:28;;;;;;;24.75;7.60;;;;;;;30.78;39.12;98314.28;5371164;26;20004;-62
2024/04/14 07:09:53;;;;;;;42.17;9.63;;;;;;;28.72;41.80;98315.69;5372443;26;20000;-62
2024/04/14 07:12:19;;;;;;;32.58;8.50;;;;;;;30.12;40.82;98313.25;5372247;26;20425;-62
2024/04/14 07:14:44;;;;;;;21.77;7.72;;;;;;;29.99;40.55;98316.00;5382217;26;20001;-62
2024/04/14 07:17:09;;;;;;;26.77;7.55;;;;;;;31.27;38.32;98300.41;5371827;26;20609;-61
2024/04/14 07:19:35;;;;;;;34.83;8.25;;;;;;;31.07;39.83;98309.28;5391087;26;20097;-66
2024/04/14 07:22:00;;;;;;;48.22;9.15;;;;;;;31.14;38.88;98314.03;5369847;26;20012;-64
2024/04/14 07:24:25;;;;;;;27.67;7.93;;;;;;;31.85;37.64;98302.78;5374929;26;20015;-63
2024/04/14 07:26:51;;;;;;;35.83;8.38;;;;;;;32.64;35.57;98303.97;5373462;26;20036;-62
2024/04/14 07:29:16;;;;;;;22.83;7.78;;;;;;;31.61;37.85;98309.31;5374235;26;20011;-63
2024/04/14 07:31:41;;;;;;;22.42;7.70;;;;;;;30.73;39.54;98316.47;5378139;26;20008;-62
2024/04/14 07:34:07;;;;;;;49.70;10.18;;;;;;;31.78;37.83;98313.22;5372518;26;20015;-64
2024/04/14 07:36:32;;;;;;;28.20;8.15;;;;;;;32.92;37.15;98305.97;5370646;26;20012;-62
2024/04/14 07:38:57;;;;;;;38.28;8.75;;;;;;;33.67;35.70;98307.25;5375875;26;20105;-64
2024/04/14 07:41:23;;;;;;;36.78;8.15;;;;;;;31.31;38.16;98303.72;5373763;26;20000;-62
2024/04/14 07:43:48;;;;;;;30.70;7.57;;;;;;;32.45;36.73;98294.88;5374557;26;20000;-64
2024/04/14 07:46:14;;;;;;;24.20;7.10;;;;;;;32.15;36.21;98306.47;5371493;26;20038;-62
2024/04/14 07:48:40;;;;;;;22.27;10.75;;;;;;;32.21;36.99;98311.34;5370054;26;20005;-65
2024/04/14 07:51:05;;;;;;;67.70;11.05;;;;;;;31.04;38.39;98308.59;5367818;26;20032;-63
2024/04/14 07:53:31;;;;;;;25.10;7.82;;;;;;;33.25;37.10;98312.81;5373593;26;20005;-62
2024/04/14 07:55:57;;;;;;;40.63;8.70;;;;;;;32.55;36.26;98311.00;5366781;26;19995;-64
2024/04/14 07:58:23;;;;;;;32.97;8.52;;;;;;;30.79;39.39;98320.50;5368675;26;20015;-62
2024/04/14 08:00:48;;;;;;;27.45;7.15;;;;;;;31.16;39.13;98316.56;5370201;26;19999;-63
2024/04/14 08:03:14;;;;;;;30.80;7.72;;;;;;;33.15;36.98;98311.97;5369283;26;20011;-63
2024/04/14 08:05:40;;;;;;;36.95;7.70;;;;;;;33.07;36.34;98314.53;5369017;26;20008;-60
2024/04/14 08:08:08;;;;;;;69.25;10.85;;;;;;;34.30;35.30;98318.41;5367848;26;20666;-64
2024/04/14 08:10:33;;;;;;;38.03;7.70;;;;;;;31.94;38.01;98312.75;5371103;26;20055;-64
2024/04/14 08:12:58;;;;;;;67.47;10.27;;;;;;;31.63;39.37;98310.00;5363763;26;20006;-64
2024/04/14 08:15:24;;;;;;;38.33;8.35;;;;;;;33.85;35.90;98305.47;5370786;26;20048;-63
2024/04/14 08:17:49;;;;;;;26.38;7.70;;;;;;;32.24;39.88;98316.41;5371019;26;20007;-62
2024/04/14 08:20:14;;;;;;;34.47;7.70;;;;;;;32.36;38.63;98319.84;5375431;26;19995;-63
2024/04/14 08:22:40;;;;;;;36.83;7.60;;;;;;;32.93;37.09;98313.06;5373209;26;19991;-63
2024/04/14 08:25:05;;;;;;;55.85;8.93;;;;;;;33.95;37.21;98321.63;5369518;26;20007;-62
2024/04/14 08:27:31;;;;;;;38.13;7.43;;;;;;;34.00;35.65;98321.19;5368960;26;19996;-62
2024/04/14 08:29:56;;;;;;;57.58;9.27;;;;;;;32.56;37.47;98319.94;5364873;26;20641;-67
2024/04/14 08:32:21;;;;;;;30.17;6.75;;;;;;;33.11;36.73;98319.47;5367996;26;19996;-61
2024/04/14 08:34:47;;;;;;;30.63;7.00;;;;;;;31.93;39.09;98316.44;5372809;26;20111;-64
2024/04/14 08:37:12;;;;;;;29.90;7.65;;;;;;;31.76;40.16;98323.25;5368402;26;22161;-64
2024/04/14 08:39:37;;;;;;;30.88;7.85;;;;;;;32.48;38.86;98317.94;5377777;26;20072;-63
2024/04/14 08:42:07;;;;;;;70.70;11.23;;;;;;;32.08;38.44;98316.94;5365788;26;19996;-63
2024/04/14 08:44:35;;;;;;;36.13;8.27;;;;;;;33.08;37.48;98325.16;5367314;26;19997;-61
2024/04/14 08:47:03;;;;;;;63.83;10.45;;;;;;;32.36;38.10;98314.47;5369018;26;20015;-65
2024/04/14 08:49:28;;;;;;;52.15;8.88;;;;;;;31.63;39.64;98313.56;5372520;26;20008;-63
2024/04/14 08:51:54;;;;;;;45.80;8.63;;;;;;;32.94;38.03;98312.06;5369138;26;20000;-62
2024/04/14 08:54:19;;;;;;;36.22;7.45;;;;;;;32.27;38.32;98313.47;5370133;26;20027;-63
2024/04/14 08:56:46;;;;;;;32.92;8.10;;;;;;;33.25;38.08;98311.97;5370736;26;20007;-61
2024/04/14 08:59:13;;;;;;;63.35;10.15;;;;;;;31.39;39.88;98316.53;5364477;26;20539;-66
2024/04/14 09:01:38;;;;;;;47.33;8.40;;;;;;;31.36;39.90;98316.78;5370131;26;20563;-63
2024/04/14 09:04:05;;;;;;;72.13;11.07;;;;;;;32.04;37.83;98307.41;5364567;26;20007;-62
2024/04/14 09:06:32;;;;;;;42.17;7.70;;;;;;;31.01;40.23;98318.72;5370967;26;20077;-63
2024/04/14 09:08:57;;;;;;;48.65;9.27;;;;;;;32.71;37.35;98312.31;5366499;26;20007;-60
2024/04/14 09:11:23;;;;;;;39.38;8.10;;;;;;;32.62;36.28;98314.00;5372140;26;20027;-61
2024/04/14 09:13:50;;;;;;;36.65;7.13;;;;;;;32.16;37.01;98310.88;5369745;26;19999;-62
2024/04/14 09:16:17;;;;;;;37.78;7.20;;;;;;;30.21;40.22;98316.19;5365136;26;23091;-62
2024/04/14 09:18:42;;;;;;;31.67;6.90;;;;;;;30.25;41.05;98312.28;5372387;26;20015;-64
2024/04/14 09:21:08;;;;;;;86.20;12.75;;;;;;;31.86;38.86;98312.53;5367514;26;20000;-63
2024/04/14 09:23:33;;;;;;;36.08;7.45;;;;;;;30.84;39.71;98312.06;5369086;26;20000;-64
2024/04/14 09:26:01;;;;;;;61.83;9.90;;;;;;;30.72;40.20;98317.47;5368434;26;20000;-62
2024/04/14 09:28:26;;;;;;;44.03;8.73;;;;;;;30.22;40.64;98317.88;5371963;26;20004;-62
2024/04/14 09:30:52;;;;;;;29.52;7.00;;;;;;;30.50;39.40;98312.97;5369773;26;20099;-62
2024/04/14 09:33:18;;;;;;;31.38;7.43;;;;;;;28.93;41.78;98310.63;5365912;26;20439;-64
2024/04/14 09:35:47;;;;;;;38.42;7.97;;;;;;;29.87;41.64;98307.13;5368830;26;20004;-63
2024/04/14 09:38:14;;;;;;;68.82;11.05;;;;;;;30.13;40.86;98303.38;5366852;26;20015;-64
2024/04/14 09:40:41;;;;;;;22.10;6.93;;;;;;;31.18;39.39;98304.72;5369017;26;20004;-63
2024/04/14 09:43:06;;;;;;;66.30;10.52;;;;;;;32.15;38.06;98299.28;5364485;26;20523;-62
2024/04/14 09:45:32;;;;;;;36.47;7.45;;;;;;;31.73;37.46;98304.69;5370023;26;20480;-61
2024/04/14 09:47:58;;;;;;;34.72;7.28;;;;;;;31.61;37.41;98299.38;5363904;26;20005;-60
2024/04/14 09:50:24;;;;;;;44.58;8.43;;;;;;;32.27;36.38;98288.38;5366779;26;20126;-63
2024/04/14 09:52:52;;;;;;;30.83;7.07;;;;;;;33.04;35.70;98293.25;5367858;26;19996;-63
2024/04/14 09:55:20;;;;;;;28.77;6.72;;;;;;;32.28;35.63;98299.00;5369529;26;23000;-64
2024/04/14 09:57:48;;;;;;;41.45;7.93;;;;;;;31.47;37.90;98300.56;5369300;26;20015;-64
2024/04/14 10:00:14;;;;;;;61.67;9.55;;;;;;;30.70;38.13;98294.38;5369913;26;20000;-64
2024/04/14 10:03:03;;;;;;;25.80;7.30;;;;;;;31.79;36.36;98294.25;5371494;26;20467;-65
2024/04/14 10:05:29;;;;;;;35.40;7.80;;;;;;;31.91;36.23;98281.59;5366743;26;21695;-65
2024/04/14 10:07:55;;;;;;;28.25;6.95;;;;;;;32.65;35.55;98278.72;5375512;26;20014;-63
2024/04/14 10:10:23;;;;;;;38.38;7.93;;;;;;;31.95;35.55;98279.50;5369477;26;20011;-65
2024/04/14 10:12:51;;;;;;;29.73;6.90;;;;;;;31.93;35.94;98281.47;5383407;26;20018;-63
2024/04/14 10:15:16;;;;;;;61.65;10.13;;;;;;;31.02;37.76;98283.69;5374548;26;20000;-65
2024/04/14 10:17:42;;;;;;;27.33;7.05;;;;;;;30.73;37.86;98286.94;5375534;26;20011;-63
2024/04/14 10:20:17;;;;;;;52.20;9.00;;;;;;;29.95;39.52;98278.84;5369180;26;20004;-66
2024/04/14 10:22:45;;;;;;;36.08;7.85;;;;;;;29.61;39.79;98277.84;5370867;26;20015;-66
2024/04/14 10:25:22;;;;;;;60.67;10.68;;;;;;;29.38;41.38;98276.91;5369099;26;20553;-63
2024/04/14 10:27:49;;;;;;;30.95;7.22;;;;;;;29.66;40.81;98274.81;5377826;26;20429;-62
2024/04/14 10:30:21;;;;;;;64.40;10.93;;;;;;;29.28;41.07;98275.94;5371791;26;20015;-62
2024/04/14 10:32:47;;;;;;;30.85;7.63;;;;;;;29.92;41.06;98271.91;5370063;26;19997;-62
2024/04/14 10:35:15;;;;;;;63.28;9.85;;;;;;;30.33;39.70;98268.72;5374176;26;19999;-61
2024/04/14 10:37:52;;;;;;;26.42;7.05;;;;;;;29.36;40.43;98268.16;5376344;26;20047;-65
2024/04/14 10:40:18;;;;;;;61.70;10.32;;;;;;;28.99;40.69;98266.47;5370047;26;20008;-63
2024/04/14 10:42:46;;;;;;;33.05;7.30;;;;;;;28.56;42.12;98266.00;5373368;26;19997;-62
2024/04/14 10:45:11;;;;;;;56.33;9.98;;;;;;;27.98;43.76;98263.03;5369503;26;20007;-63
2024/04/14 10:47:37;;;;;;;50.10;17.30;;;;;;;27.32;45.45;98259.47;5375400;26;20429;-64
2024/04/14 10:50:03;;;;;;;61.83;9.45;;;;;;;27.69;45.19;98256.09;5371294;26;20801;-64
2024/04/14 10:52:28;;;;;;;36.90;7.40;;;;;;;27.98;44.65;98255.00;5372055;26;20023;-63
2024/04/14 10:54:54;;;;;;;42.05;8.18;;;;;;;27.84;44.79;98254.16;5370516;26;20008;-64
2024/04/14 10:57:19;;;;;;;96.63;12.30;;;;;;;28.70;43.46;98259.63;5368388;26;20052;-62
2024/04/14 10:59:45;;;;;;;34.63;7.43;;;;;;;28.53;44.26;98254.66;5371750;26;20337;-62
2024/04/14 11:02:11;;;;;;;66.13;10.13;;;;;;;28.68;43.19;98258.88;5367069;26;20022;-64
2024/04/14 11:04:37;;;;;;;47.90;8.85;;;;;;;29.83;42.18;98260.09;5369275;26;20353;-62
2024/04/14 11:07:03;;;;;;;37.22;7.95;;;;;;;29.17;42.51;98258.84;5367322;26;20003;-63
2024/04/14 11:09:30;;;;;;;45.72;8.77;;;;;;;29.49;41.43;98247.47;5373011;26;20010;-63
2024/04/14 11:11:59;;;;;;;52.60;8.55;;;;;;;29.43;41.09;98239.06;5368837;26;20000;-64